Time;durP1;ratioP1;P1;durP2;ratioP2;P2;SDS_P1;SDS_P2;PMS_P1;PMS_P2;Temp;Humidity;BMP_temperature;BMP_pressure;BME280_temperature;BME280_humidity;BME280_pressure;Samples;Min_cycle;Max_cycle;Signal;HPM_P1;HPM_P2
2024/04/12 00:01:44;;;;;;;51.93;36.67;;;13.00;94.70;;;;;;5526672;26;20218;-85
2024/04/12 00:04:15;;;;;;;50.37;35.27;;;13.10;94.70;;;;;;5526432;26;20738;-86
2024/04/12 00:06:45;;;;;;;53.93;36.13;;;13.10;94.60;;;;;;5493636;26;20240;-86
2024/04/12 00:09:17;;;;;;;53.23;38.03;;;13.10;94.50;;;;;;5526188;26;20277;-85
2024/04/12 00:11:44;;;;;;;52.73;36.83;;;13.00;94.50;;;;;;5493504;26;20215;-86
2024/04/12 00:14:10;;;;;;;53.23;36.50;;;13.10;94.50;;;;;;5528950;26;20221;-85
2024/04/12 00:16:38;;;;;;;56.67;38.40;;;13.10;94.40;;;;;;5529989;26;20313;-85
2024/04/12 00:19:12;;;;;;;59.70;38.40;;;13.10;94.40;;;;;;5529619;26;20237;-86
2024/04/12 00:21:38;;;;;;;55.27;38.17;;;13.10;94.40;;;;;;5529493;26;20244;-85
2024/04/12 00:24:11;;;;;;;52.87;37.53;;;13.00;94.40;;;;;;5529727;26;20222;-85
2024/04/12 00:26:37;;;;;;;56.23;37.77;;;13.10;94.40;;;;;;5529583;26;20206;-86
2024/04/12 00:29:07;;;;;;;60.33;36.87;;;13.00;94.40;;;;;;5529469;26;20210;-85
2024/04/12 00:31:42;;;;;;;49.13;34.10;;;13.00;94.40;;;;;;5529488;26;20372;-85
2024/04/12 00:34:07;;;;;;;50.03;35.10;;;13.00;94.40;;;;;;5529374;26;20213;-85
2024/04/12 00:36:34;;;;;;;53.57;36.17;;;13.10;94.30;;;;;;5529731;26;20256;-85
2024/04/12 00:39:00;;;;;;;51.33;34.90;;;13.00;94.30;;;;;;5529735;26;20248;-85
2024/04/12 00:41:27;;;;;;;52.13;34.37;;;13.00;94.40;;;;;;5529461;26;20710;-85
2024/04/12 00:43:52;;;;;;;48.83;33.00;;;13.00;94.30;;;;;;5496584;26;20256;-85
2024/04/12 00:46:23;;;;;;;48.30;33.50;;;13.00;94.30;;;;;;5529549;26;20256;-85
2024/04/12 00:48:51;;;;;;;46.60;33.37;;;13.00;94.30;;;;;;5529361;26;20679;-85
2024/04/12 00:51:19;;;;;;;49.00;33.33;;;13.00;94.30;;;;;;5529477;26;20222;-86
2024/04/12 00:53:47;;;;;;;43.60;31.20;;;13.00;94.30;;;;;;5529116;26;20268;-85
2024/04/12 00:56:14;;;;;;;45.97;31.70;;;13.00;94.20;;;;;;5529243;26;20206;-85
2024/04/12 00:58:41;;;;;;;43.97;29.47;;;13.00;94.20;;;;;;5529327;26;20209;-86
2024/04/12 01:01:15;;;;;;;45.77;29.47;;;13.00;94.20;;;;;;5496535;26;20214;-86
2024/04/12 01:04:19;;;;;;;40.30;28.43;;;13.00;94.20;;;;;;5529501;26;20248;-86
2024/04/12 01:06:34;;;;;;;45.73;28.03;;;13.00;94.10;;;;;;5522531;26;20298;-85
2024/04/12 01:09:10;;;;;;;44.23;28.00;;;13.00;94.10;;;;;;5529152;26;20213;-85
2024/04/12 01:11:36;;;;;;;40.63;25.83;;;12.90;94.00;;;;;;5496280;26;20209;-86
2024/04/12 01:14:02;;;;;;;37.77;25.50;;;12.90;93.90;;;;;;5496246;26;20226;-85
2024/04/12 01:16:27;;;;;;;38.57;25.23;;;12.90;93.90;;;;;;5529193;26;20206;-86
2024/04/12 01:18:55;;;;;;;42.20;26.20;;;13.00;94.00;;;;;;5528715;26;20240;-85
2024/04/12 01:21:24;;;;;;;37.37;25.40;;;13.00;93.90;;;;;;5496181;26;20341;-85
2024/04/12 01:23:53;;;;;;;39.10;25.73;;;12.90;93.90;;;;;;5495692;26;20234;-85
2024/04/12 01:26:20;;;;;;;39.93;25.53;;;13.00;93.90;;;;;;5528359;26;20324;-86
2024/04/12 01:28:48;;;;;;;35.23;24.10;;;13.00;93.90;;;;;;5529198;26;20698;-86
2024/04/12 01:31:17;;;;;;;37.57;21.57;;;13.00;93.90;;;;;;5529217;26;20218;-87
2024/04/12 01:33:50;;;;;;;39.80;23.20;;;13.00;93.90;;;;;;5496326;26;20230;-85
2024/04/12 01:36:21;;;;;;;37.70;22.67;;;13.00;93.90;;;;;;5496285;26;20246;-86
2024/04/12 01:38:54;;;;;;;36.00;23.73;;;13.00;94.00;;;;;;5528765;26;20218;-85
2024/04/12 01:41:32;;;;;;;38.00;22.23;;;13.00;94.10;;;;;;5528772;26;20737;-86
2024/04/12 01:44:06;;;;;;;38.67;22.97;;;12.90;94.30;;;;;;5528619;26;20301;-85
2024/04/12 01:46:32;;;;;;;40.30;22.93;;;12.90;94.40;;;;;;5495941;26;20210;-85
2024/04/12 01:48:59;;;;;;;37.77;21.57;;;12.90;94.60;;;;;;5496197;26;20240;-85
2024/04/12 01:51:25;;;;;;;39.97;23.93;;;12.90;94.60;;;;;;5528649;26;20253;-86
2024/04/12 01:53:55;;;;;;;38.90;23.10;;;12.90;94.70;;;;;;5528639;26;20218;-86
2024/04/12 01:56:22;;;;;;;43.37;24.63;;;12.90;94.70;;;;;;5528949;26;20197;-85
2024/04/12 01:58:48;;;;;;;40.77;23.80;;;12.90;94.80;;;;;;5528809;26;20210;-85
2024/04/12 02:01:16;;;;;;;43.20;24.20;;;12.80;94.90;;;;;;5496026;26;20222;-85
2024/04/12 02:03:42;;;;;;;46.40;24.53;;;12.90;94.90;;;;;;5528378;26;20226;-85
2024/04/12 02:06:08;;;;;;;49.17;25.20;;;12.90;95.00;;;;;;5495810;26;20249;-85
2024/04/12 02:08:38;;;;;;;45.60;24.67;;;12.80;95.10;;;;;;5495915;26;20253;-85
2024/04/12 02:11:07;;;;;;;45.40;25.83;;;12.80;95.20;;;;;;5528276;26;20688;-85
2024/04/12 02:13:36;;;;;;;52.07;27.07;;;12.80;95.20;;;;;;5528131;26;20764;-85
2024/04/12 02:16:06;;;;;;;46.73;25.53;;;12.80;95.30;;;;;;5528398;26;20561;-86
2024/04/12 02:18:33;;;;;;;47.70;26.80;;;12.90;95.30;;;;;;5528434;26;20206;-85
2024/04/12 02:21:05;;;;;;;48.43;25.90;;;12.80;95.30;;;;;;5528186;26;20260;-85
2024/04/12 02:23:34;;;;;;;44.53;24.60;;;12.80;95.30;;;;;;5528494;26;20218;-85
2024/04/12 02:26:01;;;;;;;48.93;26.17;;;12.80;95.30;;;;;;5528128;26;20249;-85
2024/04/12 02:28:27;;;;;;;48.27;26.27;;;12.80;95.20;;;;;;5495674;26;20367;-85
2024/04/12 02:30:54;;;;;;;41.50;23.77;;;12.80;95.20;;;;;;5527944;26;20247;-86
2024/04/12 02:33:25;;;;;;;43.37;24.17;;;12.80;95.10;;;;;;5528285;26;20226;-85
2024/04/12 02:36:01;;;;;;;42.20;23.77;;;12.80;95.00;;;;;;5527820;26;20182;-85
2024/04/12 02:38:28;;;;;;;44.17;24.93;;;12.90;94.90;;;;;;5528293;26;20752;-85
2024/04/12 02:40:57;;;;;;;38.20;23.80;;;12.90;94.90;;;;;;5527731;26;20222;-85
2024/04/12 02:43:24;;;;;;;36.07;20.63;;;12.90;94.80;;;;;;5527956;26;20344;-86
2024/04/12 02:45:51;;;;;;;41.93;22.00;;;12.90;94.60;;;;;;5528131;26;20277;-86
2024/04/12 02:48:19;;;;;;;40.20;21.73;;;12.90;94.50;;;;;;5528031;26;20210;-85
2024/04/12 02:50:53;;;;;;;33.93;20.97;;;12.90;94.50;;;;;;5528032;26;20214;-86
2024/04/12 02:53:23;;;;;;;35.30;20.50;;;12.90;94.40;;;;;;5527705;26;20305;-85
2024/04/12 02:56:18;;;;;;;35.37;19.93;;;12.90;94.30;;;;;;5494918;26;20246;-85
2024/04/12 02:58:48;;;;;;;32.27;19.87;;;12.90;94.10;;;;;;5527967;26;20226;-85
2024/04/12 03:01:18;;;;;;;33.43;20.87;;;13.00;93.90;;;;;;5527806;26;20316;-86
2024/04/12 03:03:45;;;;;;;33.40;20.40;;;12.90;93.80;;;;;;5527626;26;20222;-85
2024/04/12 03:06:19;;;;;;;31.43;21.53;;;12.90;93.80;;;;;;5527749;26;20255;-86
2024/04/12 03:08:49;;;;;;;36.40;22.13;;;13.00;93.80;;;;;;5528500;26;20197;-86
2024/04/12 03:11:22;;;;;;;30.83;21.83;;;13.00;93.90;;;;;;5495049;26;20249;-86
2024/04/12 03:13:52;;;;;;;36.57;23.23;;;12.90;93.90;;;;;;5527607;26;20218;-85
2024/04/12 03:16:19;;;;;;;33.93;21.10;;;13.00;93.90;;;;;;5527591;26;20317;-85
2024/04/12 03:18:46;;;;;;;33.43;22.67;;;12.90;93.90;;;;;;5527480;26;20270;-86
2024/04/12 03:21:15;;;;;;;34.50;22.00;;;12.90;93.90;;;;;;5527680;26;20214;-86
2024/04/12 03:23:44;;;;;;;32.20;21.50;;;12.90;93.90;;;;;;5527677;26;20283;-85
2024/04/12 03:26:14;;;;;;;34.17;21.97;;;12.90;93.80;;;;;;5527412;26;20257;-85
2024/04/12 03:28:41;;;;;;;32.90;22.53;;;12.80;93.80;;;;;;5494728;26;20269;-86
2024/04/12 03:31:07;;;;;;;33.90;23.23;;;12.90;93.80;;;;;;5494681;26;20218;-86
2024/04/12 03:33:42;;;;;;;38.63;23.70;;;12.90;93.90;;;;;;5527375;26;20230;-86
2024/04/12 03:42:03;;;;;;;37.00;23.27;;;12.90;94.00;;;;;;5528008;26;20202;-86
2024/04/12 03:44:32;;;;;;;41.33;24.70;;;12.90;94.10;;;;;;5527126;26;20588;-86
2024/04/12 03:47:00;;;;;;;35.07;24.27;;;12.90;94.10;;;;;;5526583;26;20321;-85
2024/04/12 03:49:28;;;;;;;37.87;23.03;;;12.90;94.30;;;;;;5526162;26;20210;-86
2024/04/12 03:51:56;;;;;;;40.80;25.17;;;12.80;94.40;;;;;;5527302;26;20693;-86
2024/04/12 03:54:23;;;;;;;45.00;22.83;;;12.80;94.60;;;;;;5526724;26;20222;-86
2024/04/12 03:56:49;;;;;;;43.57;23.00;;;12.80;94.70;;;;;;5526721;26;20213;-86
2024/04/12 03:59:19;;;;;;;45.23;24.70;;;12.80;94.90;;;;;;5526907;26;20380;-86
2024/04/12 04:01:48;;;;;;;48.50;26.03;;;12.70;95.00;;;;;;5494506;26;20218;-86
2024/04/12 04:04:18;;;;;;;45.93;24.73;;;12.80;95.20;;;;;;5526665;26;20222;-86
2024/04/12 04:06:45;;;;;;;52.87;26.73;;;12.80;95.20;;;;;;5494059;26;20262;-86
2024/04/12 04:09:13;;;;;;;53.40;26.77;;;12.70;95.30;;;;;;5526690;26;20206;-86
2024/04/12 04:11:42;;;;;;;55.23;27.40;;;12.70;95.40;;;;;;5526671;26;20701;-86
2024/04/12 04:14:13;;;;;;;57.57;27.70;;;12.70;95.50;;;;;;5526459;26;20249;-86
2024/04/12 04:16:42;;;;;;;52.67;27.50;;;12.70;95.60;;;;;;5526630;26;20170;-85
2024/04/12 04:19:12;;;;;;;54.27;27.40;;;12.70;95.60;;;;;;5493414;26;20257;-85
2024/04/12 04:21:41;;;;;;;61.23;30.33;;;12.70;95.70;;;;;;5526030;26;20265;-86
2024/04/12 04:24:10;;;;;;;60.83;29.27;;;12.70;95.70;;;;;;5526223;26;20226;-86
2024/04/12 04:26:42;;;;;;;64.17;30.47;;;12.70;95.80;;;;;;5526034;26;20321;-86
2024/04/12 04:29:11;;;;;;;65.70;29.60;;;12.70;95.90;;;;;;5526417;26;20306;-86
2024/04/12 04:31:51;;;;;;;66.23;32.07;;;12.60;95.90;;;;;;5526020;26;20327;-85
2024/04/12 04:34:18;;;;;;;68.20;29.93;;;12.60;96.00;;;;;;5525805;26;20313;-86
2024/04/12 04:36:48;;;;;;;65.07;30.97;;;12.60;96.00;;;;;;5526098;26;20599;-86
2024/04/12 04:39:17;;;;;;;71.17;31.90;;;12.70;96.10;;;;;;5525488;26;20264;-86
2024/04/12 04:41:46;;;;;;;77.27;32.73;;;12.60;96.10;;;;;;5493459;26;20222;-86
2024/04/12 04:44:15;;;;;;;77.60;34.70;;;12.70;96.10;;;;;;5525637;26;20264;-86
2024/04/12 04:46:41;;;;;;;77.50;33.67;;;12.70;96.20;;;;;;5525835;26;20287;-86
2024/04/12 04:49:08;;;;;;;83.40;35.53;;;12.70;96.20;;;;;;5492931;26;20262;-85
2024/04/12 04:51:35;;;;;;;85.53;36.77;;;12.70;96.20;;;;;;5493050;26;20269;-86
2024/04/12 04:54:01;;;;;;;87.87;37.50;;;12.70;96.20;;;;;;5525752;26;20290;-86
2024/04/12 04:56:30;;;;;;;94.60;37.57;;;12.70;96.20;;;;;;5493315;26;20222;-86
2024/04/12 04:58:56;;;;;;;95.40;37.60;;;12.70;96.30;;;;;;5494200;26;20259;-86
2024/04/12 05:01:25;;;;;;;98.03;39.83;;;12.70;96.30;;;;;;5496787;26;20249;-86
2024/04/12 05:03:52;;;;;;;103.30;43.23;;;12.70;96.30;;;;;;5529429;26;20227;-85
2024/04/12 05:06:27;;;;;;;98.90;40.40;;;12.70;96.30;;;;;;5529626;26;20277;-86
2024/04/12 05:08:55;;;;;;;103.33;42.87;;;12.70;96.30;;;;;;5529330;26;20175;-85
2024/04/12 05:11:21;;;;;;;96.80;43.37;;;12.70;96.30;;;;;;5529002;26;20206;-86
2024/04/12 05:13:50;;;;;;;110.57;45.97;;;12.70;96.30;;;;;;5496384;26;20269;-86
2024/04/12 05:16:19;;;;;;;111.43;45.13;;;12.80;96.30;;;;;;5529115;26;20561;-86
2024/04/12 05:18:48;;;;;;;103.83;44.60;;;12.80;96.30;;;;;;5529017;26;20274;-86
2024/04/12 05:21:17;;;;;;;96.43;42.63;;;12.80;96.30;;;;;;5529187;26;20214;-85
2024/04/12 05:23:43;;;;;;;96.87;43.60;;;12.80;96.30;;;;;;5528865;26;20245;-86
2024/04/12 05:26:09;;;;;;;101.67;45.87;;;12.80;96.40;;;;;;5529263;26;20222;-86
2024/04/12 05:28:35;;;;;;;100.53;46.17;;;12.80;96.40;;;;;;5529052;26;20206;-85
2024/04/12 05:31:02;;;;;;;94.27;42.40;;;12.80;96.30;;;;;;5496478;26;20241;-86
2024/04/12 05:33:29;;;;;;;102.37;47.90;;;12.80;96.30;;;;;;5496090;26;20277;-85
2024/04/12 05:35:55;;;;;;;104.70;45.87;;;12.80;96.30;;;;;;5528681;26;20256;-86
2024/04/12 05:38:21;;;;;;;102.83;48.33;;;12.80;96.30;;;;;;5496150;26;20564;-86
2024/04/12 05:40:54;;;;;;;97.43;47.67;;;12.90;96.20;;;;;;5528940;26;20229;-85
2024/04/12 05:43:21;;;;;;;95.33;46.73;;;12.90;96.20;;;;;;5496162;26;20234;-86
2024/04/12 05:45:49;;;;;;;94.57;47.03;;;12.90;96.20;;;;;;5528417;26;20313;-87
2024/04/12 05:48:19;;;;;;;104.53;48.23;;;12.90;96.20;;;;;;5528503;26;20270;-86
2024/04/12 05:50:48;;;;;;;92.63;46.70;;;12.90;96.10;;;;;;5528717;26;20302;-86
2024/04/12 05:53:13;;;;;;;77.47;39.97;;;12.90;96.10;;;;;;5528504;26;20230;-86
2024/04/12 05:55:44;;;;;;;82.40;43.47;;;12.90;96.00;;;;;;5529219;26;20318;-87
2024/04/12 05:58:23;;;;;;;84.13;45.30;;;12.90;96.00;;;;;;5529097;26;20197;-89
2024/04/12 06:00:50;;;;;;;83.60;43.43;;;12.90;96.00;;;;;;5496053;26;20310;-89
2024/04/12 06:03:16;;;;;;;89.03;45.33;;;12.90;96.00;;;;;;5528649;26;20338;-90
2024/04/12 06:05:57;;;;;;;78.13;43.20;;;12.90;96.00;;;;;;5528503;26;20218;-89
2024/04/12 06:08:28;;;;;;;80.30;43.17;;;12.90;96.00;;;;;;5528351;26;20175;-89
2024/04/12 06:10:55;;;;;;;80.57;39.00;;;12.90;96.00;;;;;;5527696;26;20674;-89
2024/04/12 06:13:23;;;;;;;78.27;40.50;;;12.90;95.90;;;;;;5528582;26;20305;-89
2024/04/12 06:15:49;;;;;;;78.07;41.93;;;12.90;95.90;;;;;;5528550;26;20211;-89
2024/04/12 06:18:16;;;;;;;73.83;39.10;;;12.90;95.90;;;;;;5528278;26;20210;-89
2024/04/12 06:20:43;;;;;;;76.60;42.30;;;12.90;95.90;;;;;;5527992;26;20679;-89
2024/04/12 06:23:11;;;;;;;79.10;41.83;;;12.90;95.80;;;;;;5495545;26;20229;-89
2024/04/12 06:25:38;;;;;;;81.83;41.10;;;12.90;95.80;;;;;;5528267;26;20260;-89
2024/04/12 06:28:13;;;;;;;73.43;38.87;;;12.90;95.80;;;;;;5495500;26;20339;-89
2024/04/12 06:30:43;;;;;;;75.30;37.20;;;12.90;95.80;;;;;;5495473;26;20759;-89
2024/04/12 06:33:12;;;;;;;73.30;39.87;;;13.00;95.70;;;;;;5495520;26;20713;-89
2024/04/12 06:35:40;;;;;;;66.83;36.80;;;12.90;95.70;;;;;;5528006;26;20267;-89
2024/04/12 06:38:08;;;;;;;60.97;36.07;;;13.00;95.60;;;;;;5527964;26;20277;-89
2024/04/12 06:40:37;;;;;;;64.10;34.50;;;13.00;95.50;;;;;;5527986;26;20760;-89
2024/04/12 06:43:11;;;;;;;65.63;37.23;;;13.00;95.50;;;;;;5495403;26;20293;-88
2024/04/12 06:45:43;;;;;;;67.40;35.43;;;13.10;95.40;;;;;;5495885;26;20561;-88
2024/04/12 06:48:16;;;;;;;58.97;33.50;;;13.20;95.40;;;;;;5496828;26;20215;-92
2024/04/12 06:51:01;;;;;;;56.20;33.17;;;13.10;95.20;;;;;;5496251;26;20219;-92
2024/04/12 06:53:27;;;;;;;55.17;32.23;;;13.20;95.10;;;;;;5529231;26;20248;-90
2024/04/12 06:55:55;;;;;;;51.47;31.57;;;13.20;95.00;;;;;;5495392;26;20222;-91
2024/04/12 06:58:25;;;;;;;41.93;24.63;;;13.30;94.90;;;;;;5495538;26;20230;-92
2024/04/12 07:00:59;;;;;;;45.50;27.37;;;13.30;94.70;;;;;;5495419;26;20283;-91
2024/04/12 07:03:25;;;;;;;46.23;28.17;;;13.40;94.50;;;;;;5497610;26;20260;-88
2024/04/12 07:05:53;;;;;;;42.90;28.07;;;13.50;94.50;;;;;;5530086;26;20214;-87
2024/04/12 07:08:25;;;;;;;43.50;27.60;;;13.50;94.30;;;;;;5529515;26;20260;-88
2024/04/12 07:10:51;;;;;;;48.87;28.83;;;13.50;94.20;;;;;;5529805;26;20282;-88
2024/04/12 07:13:21;;;;;;;41.03;26.23;;;13.60;94.10;;;;;;5529227;26;20218;-87
2024/04/12 07:15:48;;;;;;;39.43;26.10;;;13.60;94.00;;;;;;5529938;26;20214;-85
2024/04/12 07:18:15;;;;;;;40.43;25.30;;;13.60;94.00;;;;;;5528023;26;20210;-86
2024/04/12 07:20:44;;;;;;;42.17;26.77;;;13.60;93.90;;;;;;5527607;26;20257;-85
2024/04/12 07:23:16;;;;;;;37.35;22.23;;;13.80;93.90;;;;;;5526428;26;20244;-85
2024/04/12 07:25:47;;;;;;;33.27;21.83;;;13.80;93.40;;;;;;5527091;26;20178;-86
2024/04/12 07:28:14;;;;;;;36.85;22.88;;;13.80;92.90;;;;;;5527732;26;20706;-86
2024/04/12 07:30:45;;;;;;;35.63;24.50;;;13.90;92.90;;;;;;5494805;26;20226;-86
2024/04/12 07:33:14;;;;;;;32.15;20.63;;;13.90;93.00;;;;;;5527315;26;20313;-87
2024/04/12 07:35:44;;;;;;;33.08;22.73;;;13.80;92.80;;;;;;5527010;26;20215;-85
2024/04/12 07:38:11;;;;;;;30.30;22.05;;;13.90;92.80;;;;;;5527858;26;20702;-85
2024/04/12 07:40:41;;;;;;;31.30;21.90;;;13.90;92.80;;;;;;5527117;26;20392;-85
2024/04/12 07:43:11;;;;;;;32.92;24.27;;;13.90;92.70;;;;;;5494758;26;20230;-84
2024/04/12 07:45:38;;;;;;;34.75;24.02;;;14.00;92.70;;;;;;5494143;26;20282;-85
2024/04/12 07:50:46;;;;;;;26.25;19.52;;;13.90;92.30;;;;;;5528673;26;20214;-85
2024/04/12 07:53:22;;;;;;;30.60;21.45;;;13.90;92.10;;;;;;5494455;26;20230;-85
2024/04/12 07:56:08;;;;;;;27.65;21.42;;;14.00;92.10;;;;;;5527341;26;20301;-86
2024/04/12 07:58:35;;;;;;;28.92;21.45;;;14.00;91.90;;;;;;5526853;26;20557;-86
2024/04/12 08:01:18;;;;;;;30.02;21.77;;;14.00;91.90;;;;;;5526945;26;20309;-85
2024/04/12 08:03:56;;;;;;;26.63;20.80;;;14.00;91.70;;;;;;5526944;26;20222;-85
2024/04/12 08:06:55;;;;;;;27.70;19.55;;;14.00;91.60;;;;;;5527032;26;20201;-86
2024/04/12 08:09:42;;;;;;;27.80;20.83;;;13.90;91.60;;;;;;5527018;26;20292;-87
2024/04/12 08:12:14;;;;;;;29.03;19.63;;;13.90;91.80;;;;;;5526980;26;20206;-85
2024/04/12 08:14:51;;;;;;;20.42;15.63;;;13.80;91.70;;;;;;5494042;26;20227;-85
2024/04/12 08:17:25;;;;;;;29.48;21.75;;;13.90;91.50;;;;;;5526490;26;20186;-85
2024/04/12 08:19:55;;;;;;;25.77;19.88;;;13.90;91.30;;;;;;5526451;26;20253;-85
2024/04/12 08:22:25;;;;;;;27.80;22.08;;;13.90;91.60;;;;;;5526818;26;20206;-88
2024/04/12 08:24:52;;;;;;;28.85;21.58;;;13.90;91.50;;;;;;5526734;26;20283;-85
2024/04/12 08:27:24;;;;;;;27.88;20.35;;;13.90;91.40;;;;;;5493578;26;20218;-85
2024/04/12 08:29:55;;;;;;;31.15;24.40;;;13.90;91.60;;;;;;5493645;26;20221;-86
2024/04/12 08:32:33;;;;;;;32.03;23.60;;;13.80;91.70;;;;;;5526128;26;20218;-86
2024/04/12 08:35:03;;;;;;;33.17;25.17;;;13.90;91.40;;;;;;5528852;26;20262;-85
2024/04/12 08:37:36;;;;;;;32.15;25.05;;;13.90;91.50;;;;;;5530296;26;20175;-85
2024/04/12 08:40:08;;;;;;;28.55;22.83;;;14.00;91.30;;;;;;5530897;26;20225;-85
2024/04/12 08:42:34;;;;;;;27.85;21.52;;;14.00;91.10;;;;;;5529323;26;20270;-85
2024/04/12 08:45:22;;;;;;;27.88;22.73;;;14.00;91.00;;;;;;5529453;26;20270;-85
2024/04/12 08:48:02;;;;;;;27.80;22.00;;;14.10;90.90;;;;;;5528994;26;20528;-85
2024/04/12 08:50:32;;;;;;;27.58;21.80;;;14.10;91.20;;;;;;5529578;26;20256;-85
2024/04/12 08:52:58;;;;;;;22.35;18.38;;;14.20;91.40;;;;;;5529255;26;20256;-85
2024/04/12 08:55:25;;;;;;;29.67;22.83;;;14.20;90.60;;;;;;5529281;26;20569;-86
2024/04/12 08:58:00;;;;;;;25.35;21.35;;;14.30;90.90;;;;;;5529194;26;20207;-85
2024/04/12 09:00:31;;;;;;;25.00;20.20;;;14.30;90.60;;;;;;5529356;26;20190;-86
2024/04/12 09:03:02;;;;;;;24.90;19.20;;;14.40;90.20;;;;;;5529433;26;20226;-85
2024/04/12 09:05:35;;;;;;;24.15;21.65;;;14.30;89.80;;;;;;5496499;26;20215;-85
2024/04/12 09:08:03;;;;;;;26.92;22.98;;;14.40;90.00;;;;;;5529141;26;20246;-86
2024/04/12 09:10:34;;;;;;;26.58;21.50;;;14.30;90.00;;;;;;5529348;26;20222;-85
2024/04/12 09:13:08;;;;;;;25.02;21.17;;;14.30;90.20;;;;;;5529199;26;20244;-86
2024/04/12 09:15:43;;;;;;;22.88;20.50;;;14.30;89.80;;;;;;5528960;26;20274;-85
2024/04/12 09:18:15;;;;;;;24.52;21.92;;;14.30;89.80;;;;;;5529166;26;20182;-85
2024/04/12 09:20:44;;;;;;;24.17;20.30;;;14.30;89.60;;;;;;5528798;26;20178;-85
2024/04/12 09:23:20;;;;;;;24.15;20.60;;;14.30;89.30;;;;;;5528846;26;20785;-85
2024/04/12 09:25:54;;;;;;;23.88;21.15;;;14.30;89.70;;;;;;5496631;26;20244;-85
2024/04/12 09:28:22;;;;;;;22.38;19.98;;;14.30;89.80;;;;;;5529351;26;20200;-87
2024/04/12 09:33:33;;;;;;;20.80;17.50;;;14.30;89.50;;;;;;5529215;26;20302;-86
2024/04/12 09:36:14;;;;;;;22.77;18.27;;;14.30;89.60;;;;;;5529013;26;20226;-85
2024/04/12 09:38:41;;;;;;;22.38;19.48;;;14.30;89.50;;;;;;5528667;26;20202;-85
2024/04/12 09:41:29;;;;;;;20.35;18.33;;;14.30;89.40;;;;;;5528657;26;20225;-85
2024/04/12 09:43:59;;;;;;;20.90;18.73;;;14.30;89.50;;;;;;5495944;26;20230;-86
2024/04/12 09:46:46;;;;;;;22.80;19.38;;;14.30;89.60;;;;;;5527544;26;20178;-87
2024/04/12 10:37:23;;;;;;;24.13;16.38;;;14.40;91.10;;;;;;5529529;26;20267;-85
2024/04/12 10:39:49;;;;;;;24.38;17.50;;;14.40;91.10;;;;;;5527835;26;20274;-85
2024/04/12 10:42:19;;;;;;;22.52;17.70;;;14.40;91.10;;;;;;5495576;26;20305;-86
2024/04/12 10:44:51;;;;;;;22.80;18.75;;;14.50;90.90;;;;;;5528163;26;20234;-86
2024/04/12 10:47:20;;;;;;;25.45;20.02;;;14.60;90.90;;;;;;5527958;26;20186;-86
2024/04/12 10:49:46;;;;;;;23.10;18.65;;;14.60;90.70;;;;;;5495191;26;20686;-85
2024/04/12 10:52:14;;;;;;;25.55;19.58;;;14.70;90.70;;;;;;5527897;26;20217;-85
2024/04/12 10:54:43;;;;;;;25.77;20.02;;;14.80;90.40;;;;;;5527547;26;20245;-88
2024/04/12 10:57:10;;;;;;;26.25;18.83;;;14.80;90.40;;;;;;5495213;26;20241;-87
2024/04/12 10:59:42;;;;;;;23.27;19.33;;;14.80;90.20;;;;;;5527651;26;20218;-85
2024/04/12 11:02:10;;;;;;;21.50;19.15;;;14.80;89.80;;;;;;5527862;26;20606;-85
2024/04/12 11:07:39;;;;;;;20.02;17.90;;;15.00;89.60;;;;;;5446329;26;20255;-87
2024/04/12 11:10:05;;;;;;;21.50;19.25;;;15.10;89.80;;;;;;5527722;26;20257;-85
2024/04/12 11:12:40;;;;;;;22.15;19.10;;;15.30;89.90;;;;;;5527409;26;20214;-85
2024/04/12 11:32:00;;;;;;;19.00;17.08;;;15.80;87.80;;;;;;5528800;26;20227;-85
2024/04/12 11:34:30;;;;;;;19.65;15.30;;;15.80;88.30;;;;;;5494617;26;20277;-85
2024/04/12 11:37:05;;;;;;;19.15;17.33;;;15.90;87.60;;;;;;5527244;26;20314;-85
2024/04/12 11:39:35;;;;;;;19.92;17.83;;;16.00;87.80;;;;;;5527061;26;20221;-86
2024/04/12 11:42:01;;;;;;;17.77;15.90;;;16.00;87.90;;;;;;5494317;26;20794;-86
2024/04/12 11:44:27;;;;;;;19.55;17.52;;;16.00;87.50;;;;;;5527090;26;20218;-86
2024/04/12 11:46:56;;;;;;;18.48;16.67;;;16.10;87.50;;;;;;5526932;26;20221;-86
2024/04/12 11:49:25;;;;;;;17.92;16.10;;;16.20;86.60;;;;;;5527122;26;20211;-85
2024/04/12 11:51:58;;;;;;;17.33;15.60;;;16.20;86.30;;;;;;5527008;26;20737;-85
2024/04/12 11:54:31;;;;;;;17.83;16.13;;;16.20;86.50;;;;;;5526820;26;20226;-86
2024/04/12 11:57:01;;;;;;;18.77;16.85;;;16.30;86.10;;;;;;5493963;26;20244;-86
2024/04/12 11:59:29;;;;;;;19.08;17.25;;;16.30;86.60;;;;;;5526818;26;20214;-86
2024/04/12 12:01:58;;;;;;;19.23;17.23;;;16.40;86.70;;;;;;5526710;26;20214;-85
2024/04/12 12:04:25;;;;;;;19.30;17.27;;;16.40;86.20;;;;;;5526535;26;20222;-86
2024/04/12 12:06:51;;;;;;;20.77;18.63;;;16.50;85.50;;;;;;5527067;26;20256;-86
2024/04/12 12:09:20;;;;;;;21.52;19.35;;;16.60;85.70;;;;;;5495515;26;20690;-86
2024/04/12 12:11:49;;;;;;;21.88;19.77;;;16.60;85.60;;;;;;5530314;26;20287;-86
2024/04/12 12:14:15;;;;;;;20.08;18.23;;;16.70;86.30;;;;;;5529987;26;20611;-86
2024/04/12 12:16:40;;;;;;;20.77;18.88;;;16.80;85.60;;;;;;5529936;26;20222;-86
2024/04/12 12:19:06;;;;;;;21.45;18.60;;;16.70;84.90;;;;;;5497482;26;20297;-85
2024/04/12 12:21:33;;;;;;;19.48;17.60;;;16.90;85.50;;;;;;5529753;26;20213;-86
2024/04/12 12:23:59;;;;;;;21.95;19.85;;;16.80;84.60;;;;;;5497444;26;20261;-86
2024/04/12 12:26:25;;;;;;;19.40;17.55;;;16.90;84.10;;;;;;5529746;26;20218;-86
2024/04/12 12:28:51;;;;;;;19.60;17.88;;;17.00;83.70;;;;;;5529798;26;20218;-87
2024/04/12 12:31:18;;;;;;;19.95;18.02;;;17.10;83.50;;;;;;5529936;26;20669;-86
2024/04/12 12:33:45;;;;;;;18.58;16.92;;;17.20;83.40;;;;;;5529906;26;20281;-86
2024/04/12 12:36:11;;;;;;;18.95;16.67;;;17.30;83.10;;;;;;5530002;26;20214;-87
2024/04/12 12:38:40;;;;;;;17.60;16.20;;;17.50;82.40;;;;;;5530378;26;20256;-87
2024/04/12 12:41:06;;;;;;;18.08;16.38;;;17.50;80.60;;;;;;5497512;26;20256;-86
2024/04/12 12:43:32;;;;;;;18.33;16.83;;;17.50;79.50;;;;;;5529673;26;20750;-87
2024/04/12 12:45:58;;;;;;;16.95;15.38;;;17.70;80.50;;;;;;5497519;26;20222;-86
2024/04/12 12:48:27;;;;;;;17.77;16.27;;;17.90;80.00;;;;;;5529613;26;20270;-87
2024/04/12 12:50:54;;;;;;;17.98;16.58;;;17.90;78.20;;;;;;5496963;26;20210;-86
2024/04/12 12:53:22;;;;;;;18.50;16.80;;;17.90;78.30;;;;;;5496866;26;20264;-88
2024/04/12 12:55:51;;;;;;;20.13;18.23;;;18.00;78.70;;;;;;5529395;26;20249;-86
2024/04/12 12:58:19;;;;;;;17.88;16.23;;;18.20;77.00;;;;;;5529518;26;20210;-86
2024/04/12 13:00:47;;;;;;;19.35;17.85;;;18.20;76.60;;;;;;5529466;26;20301;-86
2024/04/12 13:03:17;;;;;;;18.98;17.38;;;18.10;76.50;;;;;;5529391;26;20249;-89
2024/04/12 13:05:48;;;;;;;18.30;16.77;;;18.30;76.40;;;;;;5496705;26;20302;-86
2024/04/12 13:08:15;;;;;;;18.88;17.27;;;18.20;75.40;;;;;;5529403;26;20179;-86
2024/04/12 13:10:42;;;;;;;19.70;18.10;;;18.20;76.20;;;;;;5529544;26;20225;-87
2024/04/12 13:13:08;;;;;;;19.77;18.23;;;18.40;74.90;;;;;;5529457;26;20248;-87
2024/04/12 13:15:33;;;;;;;20.13;18.38;;;18.60;72.40;;;;;;5529191;26;20214;-87
2024/04/12 13:17:59;;;;;;;20.42;18.83;;;18.60;72.80;;;;;;5529362;26;20207;-86
2024/04/12 13:20:24;;;;;;;19.73;18.13;;;18.70;71.80;;;;;;5527643;26;20291;-87
2024/04/12 13:22:50;;;;;;;22.02;19.98;;;19.00;73.70;;;;;;5528964;26;20218;-86
2024/04/12 13:25:16;;;;;;;23.13;20.90;;;18.70;71.30;;;;;;5529119;26;20694;-86
2024/04/12 13:27:46;;;;;;;21.73;20.02;;;18.80;71.40;;;;;;5529264;26;20318;-87
2024/04/12 13:30:14;;;;;;;23.20;21.08;;;18.90;71.60;;;;;;5529420;26;20175;-86
2024/04/12 13:32:43;;;;;;;22.83;20.92;;;18.70;70.60;;;;;;5528952;26;20593;-86
2024/04/12 13:35:12;;;;;;;23.77;21.77;;;18.90;72.80;;;;;;5529276;26;20371;-87
2024/04/12 13:37:38;;;;;;;23.25;21.25;;;18.80;70.70;;;;;;5529315;26;20241;-86
2024/04/12 13:40:08;;;;;;;23.42;21.42;;;18.80;70.70;;;;;;5528979;26;20230;-87
2024/04/12 13:42:39;;;;;;;23.30;21.40;;;18.50;69.60;;;;;;5496392;26;20226;-88
2024/04/12 13:50:54;;;;;;;22.02;20.23;;;18.70;70.70;;;;;;5531201;26;20252;-90
2024/04/12 13:53:31;;;;;;;22.30;20.60;;;18.70;71.70;;;;;;5529850;26;20305;-86
2024/04/12 13:58:49;;;;;;;23.17;21.38;;;18.70;72.00;;;;;;5530092;26;20227;-86
2024/04/12 14:01:22;;;;;;;24.35;22.20;;;18.60;69.60;;;;;;5528979;26;20620;-87
2024/04/12 14:03:47;;;;;;;24.00;21.80;;;18.70;68.60;;;;;;5495801;26;20257;-86
2024/04/12 14:06:13;;;;;;;23.23;21.25;;;18.70;68.50;;;;;;5529622;26;20214;-87